sensor_id;sensor_type;location;lat;lon;timestamp;P1;durP1;ratioP1;P2;durP2;ratioP2
15142;SDS011;7672;50.834;6.286;2023-03-23T00:01:11;2.60;;;2.17;;
15142;SDS011;7672;50.834;6.286;2023-03-23T00:03:40;3.60;;;2.30;;
15142;SDS011;7672;50.834;6.286;2023-03-23T00:06:08;4.27;;;2.40;;
15142;SDS011;7672;50.834;6.286;2023-03-23T00:08:42;2.83;;;2.30;;
15142;SDS011;7672;50.834;6.286;2023-03-23T00:11:27;1.90;;;1.80;;
15142;SDS011;7672;50.834;6.286;2023-03-23T00:13:56;4.33;;;2.47;;
15142;SDS011;7672;50.834;6.286;2023-03-23T00:16:26;3.27;;;2.20;;
15142;SDS011;7672;50.834;6.286;2023-03-23T00:19:01;2.40;;;2.20;;
15142;SDS011;7672;50.834;6.286;2023-03-23T00:21:39;6.53;;;2.70;;
15142;SDS011;7672;50.834;6.286;2023-03-23T00:24:16;3.20;;;2.20;;
15142;SDS011;7672;50.834;6.286;2023-03-23T00:26:45;3.10;;;2.27;;
15142;SDS011;7672;50.834;6.286;2023-03-23T00:29:15;3.23;;;2.10;;
15142;SDS011;7672;50.834;6.286;2023-03-23T00:31:51;3.70;;;2.43;;
15142;SDS011;7672;50.834;6.286;2023-03-23T00:34:18;3.10;;;2.50;;
15142;SDS011;7672;50.834;6.286;2023-03-23T00:36:48;5.60;;;2.20;;
15142;SDS011;7672;50.834;6.286;2023-03-23T00:39:22;3.47;;;2.40;;
15142;SDS011;7672;50.834;6.286;2023-03-23T00:41:58;2.93;;;1.90;;
15142;SDS011;7672;50.834;6.286;2023-03-23T00:44:27;3.50;;;2.00;;
15142;SDS011;7672;50.834;6.286;2023-03-23T00:46:56;2.87;;;2.37;;
15142;SDS011;7672;50.834;6.286;2023-03-23T00:49:24;3.33;;;2.60;;
15142;SDS011;7672;50.834;6.286;2023-03-23T00:51:52;3.37;;;2.73;;
15142;SDS011;7672;50.834;6.286;2023-03-23T00:54:21;3.27;;;2.70;;
15142;SDS011;7672;50.834;6.286;2023-03-23T00:56:49;4.90;;;2.57;;
15142;SDS011;7672;50.834;6.286;2023-03-23T00:59:16;5.57;;;2.50;;
15142;SDS011;7672;50.834;6.286;2023-03-23T01:01:43;2.73;;;2.53;;
15142;SDS011;7672;50.834;6.286;2023-03-23T01:04:10;3.23;;;2.50;;
15142;SDS011;7672;50.834;6.286;2023-03-23T01:06:38;3.10;;;2.40;;
15142;SDS011;7672;50.834;6.286;2023-03-23T01:09:16;4.47;;;2.40;;
15142;SDS011;7672;50.834;6.286;2023-03-23T01:11:46;3.27;;;2.60;;
15142;SDS011;7672;50.834;6.286;2023-03-23T01:14:16;4.13;;;3.10;;
15142;SDS011;7672;50.834;6.286;2023-03-23T01:16:44;3.00;;;2.70;;
15142;SDS011;7672;50.834;6.286;2023-03-23T01:19:10;3.37;;;2.73;;
15142;SDS011;7672;50.834;6.286;2023-03-23T01:21:48;2.93;;;2.40;;
15142;SDS011;7672;50.834;6.286;2023-03-23T01:24:15;3.67;;;2.50;;
15142;SDS011;7672;50.834;6.286;2023-03-23T01:26:40;2.80;;;2.60;;
15142;SDS011;7672;50.834;6.286;2023-03-23T01:29:06;4.67;;;2.50;;
15142;SDS011;7672;50.834;6.286;2023-03-23T01:31:32;3.37;;;2.50;;
15142;SDS011;7672;50.834;6.286;2023-03-23T01:33:59;2.50;;;2.30;;
15142;SDS011;7672;50.834;6.286;2023-03-23T01:36:28;4.73;;;2.70;;
15142;SDS011;7672;50.834;6.286;2023-03-23T01:38:57;3.97;;;2.50;;
15142;SDS011;7672;50.834;6.286;2023-03-23T01:41:27;2.70;;;2.47;;
15142;SDS011;7672;50.834;6.286;2023-03-23T01:44:06;3.50;;;2.40;;
15142;SDS011;7672;50.834;6.286;2023-03-23T01:46:55;3.40;;;2.40;;
15142;SDS011;7672;50.834;6.286;2023-03-23T01:49:24;2.60;;;2.10;;
15142;SDS011;7672;50.834;6.286;2023-03-23T01:52:14;3.37;;;2.47;;
15142;SDS011;7672;50.834;6.286;2023-03-23T01:54:54;2.93;;;2.37;;
15142;SDS011;7672;50.834;6.286;2023-03-23T01:57:23;2.00;;;1.90;;
15142;SDS011;7672;50.834;6.286;2023-03-23T01:59:52;2.40;;;2.20;;
15142;SDS011;7672;50.834;6.286;2023-03-23T02:02:24;2.00;;;1.90;;
15142;SDS011;7672;50.834;6.286;2023-03-23T02:04:59;2.10;;;1.87;;
15142;SDS011;7672;50.834;6.286;2023-03-23T02:07:37;2.10;;;1.90;;
15142;SDS011;7672;50.834;6.286;2023-03-23T02:10:03;1.90;;;1.80;;
15142;SDS011;7672;50.834;6.286;2023-03-23T02:12:29;3.10;;;1.80;;
15142;SDS011;7672;50.834;6.286;2023-03-23T02:14:55;2.13;;;1.70;;
15142;SDS011;7672;50.834;6.286;2023-03-23T02:31:43;1.67;;;1.57;;
15142;SDS011;7672;50.834;6.286;2023-03-23T02:34:46;3.77;;;1.83;;
15142;SDS011;7672;50.834;6.286;2023-03-23T02:37:26;1.90;;;1.80;;
15142;SDS011;7672;50.834;6.286;2023-03-23T02:40:20;3.07;;;1.77;;
15142;SDS011;7672;50.834;6.286;2023-03-23T02:42:54;1.73;;;1.50;;
15142;SDS011;7672;50.834;6.286;2023-03-23T02:45:22;3.70;;;2.03;;
15142;SDS011;7672;50.834;6.286;2023-03-23T02:47:54;2.97;;;2.00;;
15142;SDS011;7672;50.834;6.286;2023-03-23T02:50:22;3.53;;;2.13;;
15142;SDS011;7672;50.834;6.286;2023-03-23T02:52:52;2.37;;;1.60;;
15142;SDS011;7672;50.834;6.286;2023-03-23T02:55:20;2.23;;;1.73;;
15142;SDS011;7672;50.834;6.286;2023-03-23T02:58:00;3.03;;;1.83;;
15142;SDS011;7672;50.834;6.286;2023-03-23T03:00:27;1.77;;;1.67;;
15142;SDS011;7672;50.834;6.286;2023-03-23T03:03:00;1.70;;;1.60;;
15142;SDS011;7672;50.834;6.286;2023-03-23T03:11:28;2.00;;;1.80;;
15142;SDS011;7672;50.834;6.286;2023-03-23T03:17:24;1.93;;;1.80;;
15142;SDS011;7672;50.834;6.286;2023-03-23T03:20:04;2.50;;;2.30;;
15142;SDS011;7672;50.834;6.286;2023-03-23T03:22:37;2.67;;;1.97;;
15142;SDS011;7672;50.834;6.286;2023-03-23T03:25:10;1.93;;;1.83;;
15142;SDS011;7672;50.834;6.286;2023-03-23T03:27:41;2.50;;;2.30;;
15142;SDS011;7672;50.834;6.286;2023-03-23T03:30:11;2.70;;;2.20;;
15142;SDS011;7672;50.834;6.286;2023-03-23T03:32:46;3.07;;;2.30;;
15142;SDS011;7672;50.834;6.286;2023-03-23T03:35:19;3.60;;;2.20;;
15142;SDS011;7672;50.834;6.286;2023-03-23T03:37:47;2.57;;;2.37;;
15142;SDS011;7672;50.834;6.286;2023-03-23T03:40:15;3.23;;;2.40;;
15142;SDS011;7672;50.834;6.286;2023-03-23T03:42:45;2.70;;;2.40;;
15142;SDS011;7672;50.834;6.286;2023-03-23T03:45:12;2.73;;;2.30;;
15142;SDS011;7672;50.834;6.286;2023-03-23T03:47:43;3.10;;;2.80;;
15142;SDS011;7672;50.834;6.286;2023-03-23T03:50:10;3.17;;;2.63;;
15142;SDS011;7672;50.834;6.286;2023-03-23T03:52:36;2.77;;;2.40;;
15142;SDS011;7672;50.834;6.286;2023-03-23T03:55:03;2.30;;;2.13;;
15142;SDS011;7672;50.834;6.286;2023-03-23T03:57:32;2.60;;;2.40;;
15142;SDS011;7672;50.834;6.286;2023-03-23T03:59:58;3.10;;;2.30;;
15142;SDS011;7672;50.834;6.286;2023-03-23T04:02:24;4.40;;;2.13;;
15142;SDS011;7672;50.834;6.286;2023-03-23T04:04:50;2.60;;;2.40;;
15142;SDS011;7672;50.834;6.286;2023-03-23T04:07:18;2.60;;;2.40;;
15142;SDS011;7672;50.834;6.286;2023-03-23T04:09:46;2.67;;;2.47;;
15142;SDS011;7672;50.834;6.286;2023-03-23T04:12:13;4.00;;;2.80;;
15142;SDS011;7672;50.834;6.286;2023-03-23T04:14:40;2.37;;;2.17;;
15142;SDS011;7672;50.834;6.286;2023-03-23T04:17:06;2.43;;;2.20;;
15142;SDS011;7672;50.834;6.286;2023-03-23T04:19:34;2.90;;;2.43;;
15142;SDS011;7672;50.834;6.286;2023-03-23T04:22:01;3.27;;;2.97;;
15142;SDS011;7672;50.834;6.286;2023-03-23T04:24:31;2.67;;;2.47;;
15142;SDS011;7672;50.834;6.286;2023-03-23T04:26:58;2.60;;;2.40;;
15142;SDS011;7672;50.834;6.286;2023-03-23T04:29:25;2.90;;;2.20;;
15142;SDS011;7672;50.834;6.286;2023-03-23T04:31:51;4.18;;;2.88;;
15142;SDS011;7672;50.834;6.286;2023-03-23T04:34:17;2.47;;;2.27;;
15142;SDS011;7672;50.834;6.286;2023-03-23T04:36:44;2.37;;;2.13;;
15142;SDS011;7672;50.834;6.286;2023-03-23T04:39:11;2.40;;;2.20;;
15142;SDS011;7672;50.834;6.286;2023-03-23T04:41:41;2.13;;;2.03;;
15142;SDS011;7672;50.834;6.286;2023-03-23T04:44:07;2.20;;;2.00;;
15142;SDS011;7672;50.834;6.286;2023-03-23T04:46:33;2.57;;;2.20;;
15142;SDS011;7672;50.834;6.286;2023-03-23T04:48:59;3.27;;;2.63;;
15142;SDS011;7672;50.834;6.286;2023-03-23T04:51:25;3.00;;;2.10;;
15142;SDS011;7672;50.834;6.286;2023-03-23T04:53:53;3.50;;;2.20;;
15142;SDS011;7672;50.834;6.286;2023-03-23T04:56:19;3.27;;;2.27;;
15142;SDS011;7672;50.834;6.286;2023-03-23T04:58:51;3.33;;;2.20;;
15142;SDS011;7672;50.834;6.286;2023-03-23T05:01:17;4.50;;;2.23;;
15142;SDS011;7672;50.834;6.286;2023-03-23T05:03:43;2.10;;;1.90;;
15142;SDS011;7672;50.834;6.286;2023-03-23T05:06:10;4.93;;;3.60;;
15142;SDS011;7672;50.834;6.286;2023-03-23T05:08:36;4.23;;;2.57;;
15142;SDS011;7672;50.834;6.286;2023-03-23T05:11:06;3.77;;;2.13;;
15142;SDS011;7672;50.834;6.286;2023-03-23T05:13:33;2.80;;;2.17;;
15142;SDS011;7672;50.834;6.286;2023-03-23T05:16:02;4.10;;;2.17;;
15142;SDS011;7672;50.834;6.286;2023-03-23T05:18:30;2.90;;;2.40;;
15142;SDS011;7672;50.834;6.286;2023-03-23T05:21:00;3.57;;;2.40;;
15142;SDS011;7672;50.834;6.286;2023-03-23T05:23:28;3.47;;;2.23;;
15142;SDS011;7672;50.834;6.286;2023-03-23T05:25:56;3.70;;;2.07;;
15142;SDS011;7672;50.834;6.286;2023-03-23T05:28:26;3.37;;;2.00;;
15142;SDS011;7672;50.834;6.286;2023-03-23T05:30:53;4.43;;;2.50;;
15142;SDS011;7672;50.834;6.286;2023-03-23T05:33:20;4.50;;;2.47;;
15142;SDS011;7672;50.834;6.286;2023-03-23T05:35:47;6.27;;;1.90;;
15142;SDS011;7672;50.834;6.286;2023-03-23T05:38:13;4.93;;;2.77;;
15142;SDS011;7672;50.834;6.286;2023-03-23T05:40:41;3.93;;;2.10;;
15142;SDS011;7672;50.834;6.286;2023-03-23T05:43:08;3.27;;;1.93;;
15142;SDS011;7672;50.834;6.286;2023-03-23T05:45:35;4.60;;;2.30;;
15142;SDS011;7672;50.834;6.286;2023-03-23T05:48:01;7.00;;;2.30;;
15142;SDS011;7672;50.834;6.286;2023-03-23T05:50:27;4.13;;;2.57;;
15142;SDS011;7672;50.834;6.286;2023-03-23T05:52:54;4.07;;;2.03;;
15142;SDS011;7672;50.834;6.286;2023-03-23T05:55:20;4.13;;;2.30;;
15142;SDS011;7672;50.834;6.286;2023-03-23T05:57:46;2.43;;;1.70;;
15142;SDS011;7672;50.834;6.286;2023-03-23T06:00:12;3.60;;;2.00;;
15142;SDS011;7672;50.834;6.286;2023-03-23T06:02:48;5.53;;;2.10;;
15142;SDS011;7672;50.834;6.286;2023-03-23T06:05:16;3.73;;;1.80;;
15142;SDS011;7672;50.834;6.286;2023-03-23T06:07:42;4.00;;;1.93;;
15142;SDS011;7672;50.834;6.286;2023-03-23T06:10:08;3.60;;;1.80;;
15142;SDS011;7672;50.834;6.286;2023-03-23T06:12:36;3.43;;;1.93;;
15142;SDS011;7672;50.834;6.286;2023-03-23T06:15:04;4.07;;;2.00;;
15142;SDS011;7672;50.834;6.286;2023-03-23T06:17:32;4.93;;;1.83;;
15142;SDS011;7672;50.834;6.286;2023-03-23T06:19:59;4.17;;;1.80;;
15142;SDS011;7672;50.834;6.286;2023-03-23T06:22:25;5.30;;;1.57;;
15142;SDS011;7672;50.834;6.286;2023-03-23T06:24:51;3.40;;;2.00;;
15142;SDS011;7672;50.834;6.286;2023-03-23T06:27:17;4.87;;;2.00;;
15142;SDS011;7672;50.834;6.286;2023-03-23T06:29:43;4.20;;;1.87;;
15142;SDS011;7672;50.834;6.286;2023-03-23T06:32:10;4.87;;;2.10;;
15142;SDS011;7672;50.834;6.286;2023-03-23T06:34:37;4.13;;;1.90;;
15142;SDS011;7672;50.834;6.286;2023-03-23T06:37:04;2.67;;;2.00;;
15142;SDS011;7672;50.834;6.286;2023-03-23T06:39:30;5.90;;;2.00;;
15142;SDS011;7672;50.834;6.286;2023-03-23T06:41:56;2.80;;;1.67;;
15142;SDS011;7672;50.834;6.286;2023-03-23T06:44:24;2.77;;;2.27;;
15142;SDS011;7672;50.834;6.286;2023-03-23T06:46:50;2.43;;;1.73;;
15142;SDS011;7672;50.834;6.286;2023-03-23T06:49:16;4.60;;;2.17;;
15142;SDS011;7672;50.834;6.286;2023-03-23T06:51:43;2.20;;;1.83;;
15142;SDS011;7672;50.834;6.286;2023-03-23T06:54:09;2.10;;;1.70;;
15142;SDS011;7672;50.834;6.286;2023-03-23T06:56:34;4.20;;;1.80;;
15142;SDS011;7672;50.834;6.286;2023-03-23T06:59:01;4.90;;;2.13;;
15142;SDS011;7672;50.834;6.286;2023-03-23T07:01:27;4.23;;;2.47;;
15142;SDS011;7672;50.834;6.286;2023-03-23T07:03:53;3.73;;;1.90;;
15142;SDS011;7672;50.834;6.286;2023-03-23T07:06:20;2.87;;;1.80;;
15142;SDS011;7672;50.834;6.286;2023-03-23T07:08:47;1.90;;;1.70;;
15142;SDS011;7672;50.834;6.286;2023-03-23T07:11:12;2.87;;;1.60;;
15142;SDS011;7672;50.834;6.286;2023-03-23T07:13:38;2.93;;;1.60;;
15142;SDS011;7672;50.834;6.286;2023-03-23T07:16:05;4.60;;;2.33;;
15142;SDS011;7672;50.834;6.286;2023-03-23T07:18:32;3.87;;;2.10;;
15142;SDS011;7672;50.834;6.286;2023-03-23T07:20:58;2.57;;;1.87;;
15142;SDS011;7672;50.834;6.286;2023-03-23T07:23:24;7.87;;;2.17;;
15142;SDS011;7672;50.834;6.286;2023-03-23T07:25:50;3.33;;;1.83;;
15142;SDS011;7672;50.834;6.286;2023-03-23T07:28:17;5.67;;;2.00;;
15142;SDS011;7672;50.834;6.286;2023-03-23T07:30:43;5.23;;;2.20;;
15142;SDS011;7672;50.834;6.286;2023-03-23T07:33:09;3.60;;;1.90;;
15142;SDS011;7672;50.834;6.286;2023-03-23T07:35:36;3.90;;;1.60;;
15142;SDS011;7672;50.834;6.286;2023-03-23T07:38:03;3.67;;;1.40;;
15142;SDS011;7672;50.834;6.286;2023-03-23T07:40:31;5.00;;;2.00;;
15142;SDS011;7672;50.834;6.286;2023-03-23T07:42:58;3.13;;;1.50;;
15142;SDS011;7672;50.834;6.286;2023-03-23T07:45:26;3.93;;;1.80;;
15142;SDS011;7672;50.834;6.286;2023-03-23T07:47:52;3.53;;;1.53;;
15142;SDS011;7672;50.834;6.286;2023-03-23T07:50:19;3.63;;;1.87;;
15142;SDS011;7672;50.834;6.286;2023-03-23T07:52:47;4.30;;;1.70;;
15142;SDS011;7672;50.834;6.286;2023-03-23T07:55:13;3.87;;;1.50;;
15142;SDS011;7672;50.834;6.286;2023-03-23T07:57:45;3.13;;;1.90;;
15142;SDS011;7672;50.834;6.286;2023-03-23T08:00:14;5.60;;;1.83;;
15142;SDS011;7672;50.834;6.286;2023-03-23T08:02:49;4.47;;;1.80;;
15142;SDS011;7672;50.834;6.286;2023-03-23T08:05:21;4.97;;;2.07;;
15142;SDS011;7672;50.834;6.286;2023-03-23T08:07:48;5.17;;;1.87;;
15142;SDS011;7672;50.834;6.286;2023-03-23T08:10:14;3.53;;;1.80;;
15142;SDS011;7672;50.834;6.286;2023-03-23T08:12:43;4.67;;;1.50;;
15142;SDS011;7672;50.834;6.286;2023-03-23T08:15:11;2.73;;;1.70;;
15142;SDS011;7672;50.834;6.286;2023-03-23T08:17:39;2.47;;;1.30;;
15142;SDS011;7672;50.834;6.286;2023-03-23T08:20:06;5.53;;;2.10;;
15142;SDS011;7672;50.834;6.286;2023-03-23T08:22:37;4.60;;;1.80;;
15142;SDS011;7672;50.834;6.286;2023-03-23T08:25:10;3.17;;;1.53;;
15142;SDS011;7672;50.834;6.286;2023-03-23T08:27:39;3.40;;;1.80;;
15142;SDS011;7672;50.834;6.286;2023-03-23T08:30:09;5.20;;;1.70;;
15142;SDS011;7672;50.834;6.286;2023-03-23T08:32:42;2.97;;;1.40;;
15142;SDS011;7672;50.834;6.286;2023-03-23T08:35:09;2.47;;;1.50;;
15142;SDS011;7672;50.834;6.286;2023-03-23T08:37:36;3.43;;;1.50;;
15142;SDS011;7672;50.834;6.286;2023-03-23T08:40:04;4.17;;;1.87;;
15142;SDS011;7672;50.834;6.286;2023-03-23T08:42:38;3.93;;;1.40;;
15142;SDS011;7672;50.834;6.286;2023-03-23T08:45:07;3.07;;;1.80;;
15142;SDS011;7672;50.834;6.286;2023-03-23T08:47:36;4.47;;;1.50;;
15142;SDS011;7672;50.834;6.286;2023-03-23T08:50:04;2.70;;;1.93;;
15142;SDS011;7672;50.834;6.286;2023-03-23T08:52:32;3.20;;;1.77;;
15142;SDS011;7672;50.834;6.286;2023-03-23T08:54:58;2.33;;;1.47;;
15142;SDS011;7672;50.834;6.286;2023-03-23T08:57:24;2.93;;;1.70;;
15142;SDS011;7672;50.834;6.286;2023-03-23T08:59:51;4.53;;;1.90;;
15142;SDS011;7672;50.834;6.286;2023-03-23T09:02:19;3.37;;;1.50;;
15142;SDS011;7672;50.834;6.286;2023-03-23T09:04:46;4.87;;;1.80;;
15142;SDS011;7672;50.834;6.286;2023-03-23T09:07:12;4.23;;;1.83;;
15142;SDS011;7672;50.834;6.286;2023-03-23T09:09:39;3.37;;;1.40;;
15142;SDS011;7672;50.834;6.286;2023-03-23T09:12:06;7.43;;;1.80;;
15142;SDS011;7672;50.834;6.286;2023-03-23T09:14:34;3.37;;;1.60;;
15142;SDS011;7672;50.834;6.286;2023-03-23T09:17:01;5.40;;;1.60;;
15142;SDS011;7672;50.834;6.286;2023-03-23T09:19:28;3.73;;;1.63;;
15142;SDS011;7672;50.834;6.286;2023-03-23T09:21:55;6.03;;;1.57;;
15142;SDS011;7672;50.834;6.286;2023-03-23T09:24:21;4.63;;;1.80;;
15142;SDS011;7672;50.834;6.286;2023-03-23T09:26:47;7.83;;;2.10;;
15142;SDS011;7672;50.834;6.286;2023-03-23T09:29:13;3.27;;;1.33;;
15142;SDS011;7672;50.834;6.286;2023-03-23T09:31:39;3.30;;;1.30;;
15142;SDS011;7672;50.834;6.286;2023-03-23T09:34:06;2.13;;;1.37;;
15142;SDS011;7672;50.834;6.286;2023-03-23T09:36:35;1.80;;;1.10;;
15142;SDS011;7672;50.834;6.286;2023-03-23T09:39:04;2.27;;;1.10;;
15142;SDS011;7672;50.834;6.286;2023-03-23T09:51:00;2.60;;;1.20;;
15142;SDS011;7672;50.834;6.286;2023-03-23T09:53:43;2.53;;;1.20;;
15142;SDS011;7672;50.834;6.286;2023-03-23T09:56:16;4.23;;;1.33;;
15142;SDS011;7672;50.834;6.286;2023-03-23T10:01:34;2.73;;;1.40;;
15142;SDS011;7672;50.834;6.286;2023-03-23T10:04:10;3.53;;;1.30;;
15142;SDS011;7672;50.834;6.286;2023-03-23T10:07:11;1.37;;;1.10;;
15142;SDS011;7672;50.834;6.286;2023-03-23T10:09:52;3.17;;;1.10;;
15142;SDS011;7672;50.834;6.286;2023-03-23T10:15:29;3.40;;;1.20;;
15142;SDS011;7672;50.834;6.286;2023-03-23T10:18:02;2.50;;;1.53;;
15142;SDS011;7672;50.834;6.286;2023-03-23T10:20:40;3.80;;;1.60;;
15142;SDS011;7672;50.834;6.286;2023-03-23T10:32:01;3.00;;;1.20;;
15142;SDS011;7672;50.834;6.286;2023-03-23T10:34:44;2.50;;;1.23;;
15142;SDS011;7672;50.834;6.286;2023-03-23T10:39:54;2.80;;;1.40;;
15142;SDS011;7672;50.834;6.286;2023-03-23T10:42:31;3.20;;;1.40;;
15142;SDS011;7672;50.834;6.286;2023-03-23T10:45:10;3.43;;;1.57;;
15142;SDS011;7672;50.834;6.286;2023-03-23T10:47:42;2.23;;;1.20;;
15142;SDS011;7672;50.834;6.286;2023-03-23T10:50:16;2.50;;;1.20;;
15142;SDS011;7672;50.834;6.286;2023-03-23T10:52:50;2.30;;;1.03;;
15142;SDS011;7672;50.834;6.286;2023-03-23T10:55:21;2.27;;;1.70;;
15142;SDS011;7672;50.834;6.286;2023-03-23T10:57:59;2.50;;;1.10;;
15142;SDS011;7672;50.834;6.286;2023-03-23T11:00:29;2.23;;;1.27;;
15142;SDS011;7672;50.834;6.286;2023-03-23T11:05:34;1.57;;;1.00;;
15142;SDS011;7672;50.834;6.286;2023-03-23T11:08:19;3.40;;;1.10;;
15142;SDS011;7672;50.834;6.286;2023-03-23T11:10:50;2.93;;;1.10;;
15142;SDS011;7672;50.834;6.286;2023-03-23T11:13:27;1.87;;;1.00;;
15142;SDS011;7672;50.834;6.286;2023-03-23T11:15:57;3.17;;;1.00;;
15142;SDS011;7672;50.834;6.286;2023-03-23T11:18:34;2.03;;;1.07;;
15142;SDS011;7672;50.834;6.286;2023-03-23T11:21:11;0.80;;;0.80;;
15142;SDS011;7672;50.834;6.286;2023-03-23T11:23:40;1.30;;;1.10;;
15142;SDS011;7672;50.834;6.286;2023-03-23T11:26:13;1.57;;;1.10;;
15142;SDS011;7672;50.834;6.286;2023-03-23T11:28:53;1.37;;;1.00;;
15142;SDS011;7672;50.834;6.286;2023-03-23T11:31:27;2.83;;;0.90;;
15142;SDS011;7672;50.834;6.286;2023-03-23T11:34:11;2.43;;;1.27;;
15142;SDS011;7672;50.834;6.286;2023-03-23T11:36:54;2.33;;;1.00;;
15142;SDS011;7672;50.834;6.286;2023-03-23T11:39:27;1.83;;;1.00;;
15142;SDS011;7672;50.834;6.286;2023-03-23T11:41:58;1.40;;;0.97;;
15142;SDS011;7672;50.834;6.286;2023-03-23T11:44:40;3.00;;;1.07;;
15142;SDS011;7672;50.834;6.286;2023-03-23T11:47:17;2.33;;;1.20;;
15142;SDS011;7672;50.834;6.286;2023-03-23T11:50:14;2.67;;;1.30;;
15142;SDS011;7672;50.834;6.286;2023-03-23T11:53:00;1.90;;;1.20;;
15142;SDS011;7672;50.834;6.286;2023-03-23T11:58:12;3.77;;;1.57;;
15142;SDS011;7672;50.834;6.286;2023-03-23T12:00:46;2.50;;;1.57;;
15142;SDS011;7672;50.834;6.286;2023-03-23T12:03:22;1.30;;;1.13;;
15142;SDS011;7672;50.834;6.286;2023-03-23T12:06:06;4.13;;;1.50;;
15142;SDS011;7672;50.834;6.286;2023-03-23T12:14:21;4.23;;;1.60;;
15142;SDS011;7672;50.834;6.286;2023-03-23T12:17:11;3.10;;;1.47;;
15142;SDS011;7672;50.834;6.286;2023-03-23T12:25:49;2.17;;;1.33;;
15142;SDS011;7672;50.834;6.286;2023-03-23T12:38:08;2.23;;;1.37;;
15142;SDS011;7672;50.834;6.286;2023-03-23T12:44:31;2.33;;;1.42;;
15142;SDS011;7672;50.834;6.286;2023-03-23T12:50:15;2.60;;;1.90;;
15142;SDS011;7672;50.834;6.286;2023-03-23T12:58:11;2.00;;;1.50;;
15142;SDS011;7672;50.834;6.286;2023-03-23T13:01:23;3.77;;;1.43;;
15142;SDS011;7672;50.834;6.286;2023-03-23T13:04:11;3.40;;;1.57;;
15142;SDS011;7672;50.834;6.286;2023-03-23T13:06:46;2.70;;;1.27;;
15142;SDS011;7672;50.834;6.286;2023-03-23T13:09:26;3.30;;;1.30;;
15142;SDS011;7672;50.834;6.286;2023-03-23T13:12:15;2.43;;;1.60;;
15142;SDS011;7672;50.834;6.286;2023-03-23T13:23:21;3.00;;;1.80;;
15142;SDS011;7672;50.834;6.286;2023-03-23T13:28:49;2.73;;;1.83;;
15142;SDS011;7672;50.834;6.286;2023-03-23T13:31:21;3.40;;;1.90;;
15142;SDS011;7672;50.834;6.286;2023-03-23T13:34:00;5.27;;;2.30;;
15142;SDS011;7672;50.834;6.286;2023-03-23T13:37:01;4.40;;;2.30;;
15142;SDS011;7672;50.834;6.286;2023-03-23T13:39:36;2.67;;;2.10;;
15142;SDS011;7672;50.834;6.286;2023-03-23T13:44:53;4.00;;;1.93;;
15142;SDS011;7672;50.834;6.286;2023-03-23T13:48:02;3.47;;;1.80;;
15142;SDS011;7672;50.834;6.286;2023-03-23T13:50:44;3.97;;;1.90;;
15142;SDS011;7672;50.834;6.286;2023-03-23T13:53:24;3.93;;;1.83;;
15142;SDS011;7672;50.834;6.286;2023-03-23T13:56:04;2.90;;;1.73;;
15142;SDS011;7672;50.834;6.286;2023-03-23T13:58:49;3.07;;;1.83;;
15142;SDS011;7672;50.834;6.286;2023-03-23T14:01:31;6.57;;;2.23;;
15142;SDS011;7672;50.834;6.286;2023-03-23T14:04:11;4.07;;;2.03;;
15142;SDS011;7672;50.834;6.286;2023-03-23T14:06:41;3.67;;;2.00;;
15142;SDS011;7672;50.834;6.286;2023-03-23T14:09:28;5.13;;;1.73;;
15142;SDS011;7672;50.834;6.286;2023-03-23T14:12:13;4.73;;;1.80;;
15142;SDS011;7672;50.834;6.286;2023-03-23T14:14:48;4.10;;;1.60;;
15142;SDS011;7672;50.834;6.286;2023-03-23T14:17:22;3.73;;;1.97;;
15142;SDS011;7672;50.834;6.286;2023-03-23T14:19:55;4.60;;;1.70;;
15142;SDS011;7672;50.834;6.286;2023-03-23T14:25:02;3.07;;;1.47;;
15142;SDS011;7672;50.834;6.286;2023-03-23T14:27:37;3.00;;;1.57;;
15142;SDS011;7672;50.834;6.286;2023-03-23T14:30:07;3.43;;;1.93;;
15142;SDS011;7672;50.834;6.286;2023-03-23T14:32:39;4.93;;;1.77;;
15142;SDS011;7672;50.834;6.286;2023-03-23T14:35:11;2.33;;;1.50;;
15142;SDS011;7672;50.834;6.286;2023-03-23T14:37:46;5.43;;;1.60;;
15142;SDS011;7672;50.834;6.286;2023-03-23T14:40:13;3.27;;;2.00;;
15142;SDS011;7672;50.834;6.286;2023-03-23T14:42:42;4.23;;;2.00;;
15142;SDS011;7672;50.834;6.286;2023-03-23T14:45:14;3.77;;;1.63;;
15142;SDS011;7672;50.834;6.286;2023-03-23T14:47:46;4.20;;;1.93;;
15142;SDS011;7672;50.834;6.286;2023-03-23T14:50:26;2.97;;;2.10;;
15142;SDS011;7672;50.834;6.286;2023-03-23T14:53:11;3.30;;;1.70;;
15142;SDS011;7672;50.834;6.286;2023-03-23T14:55:46;2.83;;;2.10;;
15142;SDS011;7672;50.834;6.286;2023-03-23T14:58:16;4.57;;;2.23;;
15142;SDS011;7672;50.834;6.286;2023-03-23T15:01:05;4.53;;;2.10;;
15142;SDS011;7672;50.834;6.286;2023-03-23T15:03:38;2.73;;;2.20;;
15142;SDS011;7672;50.834;6.286;2023-03-23T15:06:34;4.33;;;1.90;;
15142;SDS011;7672;50.834;6.286;2023-03-23T15:09:04;4.00;;;1.70;;
15142;SDS011;7672;50.834;6.286;2023-03-23T15:11:38;4.57;;;1.87;;
15142;SDS011;7672;50.834;6.286;2023-03-23T15:14:13;6.30;;;2.23;;
15142;SDS011;7672;50.834;6.286;2023-03-23T15:16:46;4.43;;;1.80;;
15142;SDS011;7672;50.834;6.286;2023-03-23T15:19:19;5.37;;;1.90;;
15142;SDS011;7672;50.834;6.286;2023-03-23T15:22:04;4.20;;;2.33;;
15142;SDS011;7672;50.834;6.286;2023-03-23T15:25:10;4.90;;;2.10;;
15142;SDS011;7672;50.834;6.286;2023-03-23T15:27:43;3.63;;;1.90;;
15142;SDS011;7672;50.834;6.286;2023-03-23T15:30:27;3.30;;;1.83;;
15142;SDS011;7672;50.834;6.286;2023-03-23T15:33:01;5.07;;;2.13;;
15142;SDS011;7672;50.834;6.286;2023-03-23T15:35:39;4.97;;;1.80;;
15142;SDS011;7672;50.834;6.286;2023-03-23T15:40:59;5.93;;;2.20;;
15142;SDS011;7672;50.834;6.286;2023-03-23T15:43:31;5.30;;;2.00;;
15142;SDS011;7672;50.834;6.286;2023-03-23T15:51:26;3.80;;;2.07;;
15142;SDS011;7672;50.834;6.286;2023-03-23T15:53:58;4.03;;;2.00;;
15142;SDS011;7672;50.834;6.286;2023-03-23T15:57:02;4.13;;;2.10;;
15142;SDS011;7672;50.834;6.286;2023-03-23T15:59:28;6.60;;;2.03;;
15142;SDS011;7672;50.834;6.286;2023-03-23T16:01:55;3.53;;;1.97;;
15142;SDS011;7672;50.834;6.286;2023-03-23T16:04:23;4.67;;;1.93;;
15142;SDS011;7672;50.834;6.286;2023-03-23T16:06:51;3.60;;;2.10;;
15142;SDS011;7672;50.834;6.286;2023-03-23T16:09:22;5.77;;;2.30;;
15142;SDS011;7672;50.834;6.286;2023-03-23T16:11:49;5.43;;;2.20;;
15142;SDS011;7672;50.834;6.286;2023-03-23T16:14:15;5.07;;;2.10;;
15142;SDS011;7672;50.834;6.286;2023-03-23T16:16:46;4.93;;;1.93;;
15142;SDS011;7672;50.834;6.286;2023-03-23T16:19:32;4.80;;;2.17;;
15142;SDS011;7672;50.834;6.286;2023-03-23T16:21:59;5.83;;;1.97;;
15142;SDS011;7672;50.834;6.286;2023-03-23T16:24:27;6.03;;;2.30;;
15142;SDS011;7672;50.834;6.286;2023-03-23T16:26:54;7.23;;;2.30;;
15142;SDS011;7672;50.834;6.286;2023-03-23T16:29:21;4.53;;;2.17;;
15142;SDS011;7672;50.834;6.286;2023-03-23T16:32:05;6.07;;;2.40;;
15142;SDS011;7672;50.834;6.286;2023-03-23T16:34:32;6.70;;;2.47;;
15142;SDS011;7672;50.834;6.286;2023-03-23T16:37:00;4.20;;;2.40;;
15142;SDS011;7672;50.834;6.286;2023-03-23T16:39:27;3.53;;;1.77;;
15142;SDS011;7672;50.834;6.286;2023-03-23T16:41:54;4.47;;;1.97;;
15142;SDS011;7672;50.834;6.286;2023-03-23T16:44:21;5.37;;;2.27;;
15142;SDS011;7672;50.834;6.286;2023-03-23T16:46:48;4.43;;;2.20;;
15142;SDS011;7672;50.834;6.286;2023-03-23T16:49:14;2.83;;;1.80;;
15142;SDS011;7672;50.834;6.286;2023-03-23T16:51:41;4.17;;;1.93;;
15142;SDS011;7672;50.834;6.286;2023-03-23T16:54:08;5.00;;;1.80;;
15142;SDS011;7672;50.834;6.286;2023-03-23T16:56:35;3.63;;;1.90;;
15142;SDS011;7672;50.834;6.286;2023-03-23T16:59:03;6.23;;;2.00;;
15142;SDS011;7672;50.834;6.286;2023-03-23T17:01:30;4.80;;;2.37;;
15142;SDS011;7672;50.834;6.286;2023-03-23T17:03:56;3.53;;;2.10;;
15142;SDS011;7672;50.834;6.286;2023-03-23T17:06:24;5.23;;;2.20;;
15142;SDS011;7672;50.834;6.286;2023-03-23T17:08:51;3.97;;;2.10;;
15142;SDS011;7672;50.834;6.286;2023-03-23T17:11:17;5.17;;;2.10;;
15142;SDS011;7672;50.834;6.286;2023-03-23T17:13:44;4.17;;;2.37;;
15142;SDS011;7672;50.834;6.286;2023-03-23T17:16:11;6.00;;;2.40;;
15142;SDS011;7672;50.834;6.286;2023-03-23T17:18:38;3.83;;;2.13;;
15142;SDS011;7672;50.834;6.286;2023-03-23T17:21:05;6.20;;;2.30;;